| time (UTC) | temp C | wind direction | speed KPH | gust KPH | rain 1hr cm | rain 24hr cm | rain mn cm | humidity % | barometer mb |
| 20260506211523 | 19 | 247 | 1.6 | 14.5 | 0.00 | 0.36 | 0.36 | 84 | 1007.8 |
| 20260506210023 | 18 | 276 | 4.8 | 16.1 | 0.00 | 0.36 | 0.36 | 84 | 1007.9 |
| 20260506204517 | 18 | 271 | 4.8 | 16.1 | 0.00 | 0.36 | 0.36 | 85 | 1007.7 |
| 20260506203023 | 18 | 269 | 1.6 | 12.9 | 0.00 | 0.36 | 0.36 | 86 | 1007.7 |
| 20260506201515 | 17 | 283 | 3.2 | 12.9 | 0.00 | 0.36 | 0.36 | 87 | 1007.7 |
| 20260506200014 | 17 | 264 | 6.4 | 14.5 | 0.00 | 0.36 | 0.36 | 87 | 1007.8 |
| 20260506194514 | 17 | 282 | 4.8 | 20.9 | 0.00 | 0.36 | 0.36 | 87 | 1007.9 |
| 20260506193016 | 17 | 260 | 3.2 | 12.9 | 0.00 | 0.36 | 0.36 | 88 | 1008.1 |
| 20260506191511 | 17 | 240 | 1.6 | 12.9 | 0.00 | 0.36 | 0.36 | 89 | 1008.3 |
| 20260506190009 | 17 | 265 | 3.2 | 16.1 | 0.00 | 0.36 | 0.36 | 89 | 1008.3 |
| 20260506184507 | 16 | 253 | 4.8 | 14.5 | 0.00 | 0.36 | 0.36 | 89 | 1008.5 |
| 20260506183006 | 16 | 267 | 4.8 | 12.9 | 0.00 | 0.36 | 0.36 | 91 | 1008.6 |
| 20260506181506 | 16 | 241 | 4.8 | 9.7 | 0.00 | 0.36 | 0.36 | 90 | 1008.8 |
| 20260506180106 | 16 | 271 | 6.4 | 11.3 | 0.00 | 0.36 | 0.36 | 90 | 1008.7 |
| 20260506174503 | 16 | 285 | 4.8 | 20.9 | 0.03 | 0.36 | 0.36 | 91 | 1008.8 |
| 20260506173003 | 16 | 244 | 1.6 | 8.0 | 0.03 | 0.36 | 0.36 | 92 | 1008.7 |
| 20260506171505 | 16 | 242 | 4.8 | 14.5 | 0.03 | 0.36 | 0.36 | 92 | 1009.2 |
| 20260506170001 | 16 | 246 | 3.2 | 11.3 | 0.08 | 0.36 | 0.36 | 92 | 1009.0 |
| 20260506164600 | 16 | 246 | 3.2 | 8.0 | 0.15 | 0.33 | 0.33 | 93 | 1008.9 |
| 20260506164501 | 16 | 245 | 3.2 | 8.0 | 0.15 | 0.33 | 0.33 | 93 | 1008.9 |
| 20260506163104 | 16 | 254 | 1.6 | 6.4 | 0.20 | 0.33 | 0.33 | 94 | 1009.1 |
| 20260506161604 | 16 | 180 | 1.6 | 6.4 | 0.28 | 0.33 | 0.33 | 93 | 1009.4 |
| 20260506160056 | 16 | 226 | 3.2 | 11.3 | 0.25 | 0.28 | 0.28 | 92 | 1010.1 |
| 20260506154556 | 16 | 248 | 3.2 | 6.4 | 0.18 | 0.18 | 0.18 | 91 | 1010.3 |
| 20260506153051 | 16 | 244 | 1.6 | 8.0 | 0.10 | 0.10 | 0.10 | 89 | 1010.3 |
| 20260506151602 | 17 | 268 | 3.2 | 8.0 | 0.05 | 0.05 | 0.05 | 87 | 1010.3 |
| 20260506150046 | 17 | 256 | 1.6 | 6.4 | 0.03 | 0.03 | 0.03 | 86 | 1010.2 |
| 20260506144544 | 17 | 251 | 1.6 | 9.7 | 0.00 | 0.00 | 0.00 | 83 | 1010.0 |
| 20260506143048 | 18 | 240 | 6.4 | 12.9 | 0.00 | 0.00 | 0.00 | 78 | 1010.2 |
| 20260506141543 | 18 | 294 | 6.4 | 14.5 | 0.00 | 0.00 | 0.00 | 75 | 1010.3 |
| 20260506140043 | 19 | 252 | 3.2 | 14.5 | 0.00 | 0.00 | 0.00 | 75 | 1010.0 |
| 20260506134544 | 19 | 250 | 4.8 | 16.1 | 0.00 | 0.00 | 0.00 | 76 | 1009.9 |
| 20260506133043 | 18 | 267 | 3.2 | 12.9 | 0.00 | 0.00 | 0.00 | 77 | 1010.1 |
| 20260506131541 | 18 | 250 | 3.2 | 19.3 | 0.00 | 0.00 | 0.00 | 76 | 1010.2 |
| 20260506130044 | 18 | 270 | 4.8 | 19.3 | 0.00 | 0.00 | 0.00 | 76 | 1010.4 |
| 20260506124540 | 18 | 222 | 4.8 | 12.9 | 0.00 | 0.00 | 0.00 | 77 | 1010.2 |
| 20260506123040 | 18 | 243 | 3.2 | 12.9 | 0.00 | 0.00 | 0.00 | 78 | 1010.2 |
| 20260506121541 | 18 | 244 | 4.8 | 12.9 | 0.00 | 0.00 | 0.00 | 79 | 1010.0 |
| 20260506120042 | 17 | 244 | 1.6 | 6.4 | 0.00 | 0.00 | 0.00 | 79 | 1010.1 |
| 20260506114542 | 17 | 223 | 3.2 | 8.0 | 0.00 | 0.00 | 0.00 | 80 | 1010.1 |
| 20260506113038 | 17 | 217 | 3.2 | 8.0 | 0.00 | 0.00 | 0.00 | 80 | 1010.0 |
| 20260506111539 | 17 | 250 | 1.6 | 6.4 | 0.00 | 0.00 | 0.00 | 80 | 1010.1 |
| 20260506110044 | 17 | 248 | 3.2 | 8.0 | 0.00 | 0.00 | 0.00 | 80 | 1010.0 |
| 20260506104536 | 17 | 252 | 1.6 | 8.0 | 0.00 | 0.00 | 0.00 | 80 | 1010.0 |
| 20260506103036 | 17 | 245 | 1.6 | 11.3 | 0.00 | 0.00 | 0.00 | 80 | 1009.8 |
| 20260506101549 | 17 | 211 | 3.2 | 8.0 | 0.00 | 0.00 | 0.00 | 81 | 1009.8 |
| 20260506100035 | 17 | 252 | 1.6 | 8.0 | 0.00 | 0.00 | 0.00 | 80 | 1009.9 |
| 20260506094540 | 17 | 223 | 1.6 | 8.0 | 0.00 | 0.00 | 0.00 | 80 | 1009.8 |
| 20260506093034 | 18 | 227 | 1.6 | 4.8 | 0.00 | 0.00 | 0.00 | 79 | 1009.8 |
| 20260506091533 | 18 | 197 | 1.6 | 8.0 | 0.00 | 0.00 | 0.00 | 79 | 1009.7 |
| 20260506090035 | 18 | 193 | 1.6 | 11.3 | 0.00 | 0.00 | 0.00 | 79 | 1009.8 |
| 20260506084532 | 17 | 150 | 1.6 | 6.4 | 0.00 | 0.00 | 0.00 | 81 | 1009.8 |
| 20260506083029 | 17 | 207 | 0.0 | 4.8 | 0.00 | 0.00 | 0.00 | 80 | 1010.0 |
| 20260506081527 | 17 | 207 | 0.0 | 3.2 | 0.00 | 0.00 | 0.00 | 79 | 1010.0 |
| 20260506073024 | 18 | 201 | 0.0 | 3.2 | 0.00 | 0.00 | 0.00 | 79 | 1010.1 |
| 20260506071520 | 18 | 201 | 0.0 | 3.2 | 0.00 | 0.00 | 0.00 | 77 | 1010.3 |
| 20260506061514 | 19 | 248 | 3.2 | 8.0 | 0.00 | 0.00 | 0.00 | 73 | 1010.6 |
| 20260506044509 | 20 | 279 | 3.2 | 11.3 | 0.00 | 0.00 | 0.00 | 69 | 1011.0 |
| 20260506043005 | 20 | 253 | 1.6 | 6.4 | 0.00 | 0.00 | 0.00 | 69 | 1011.0 |
| 20260506041609 | 20 | 244 | 1.6 | 8.0 | 0.00 | 0.00 | 0.00 | 68 | 1011.0 |
| 20260506040002 | 20 | 268 | 0.0 | 6.4 | 0.00 | 0.00 | 0.00 | 68 | 1011.0 |
| 20260506034501 | 20 | 265 | 1.6 | 6.4 | 0.00 | 0.00 | 0.00 | 67 | 1011.0 |
| 20260506033002 | 20 | 255 | 0.0 | 8.0 | 0.00 | 0.00 | 0.00 | 67 | 1010.8 |
| 20260506031607 | 20 | 216 | 3.2 | 6.4 | 0.00 | 0.00 | 0.00 | 66 | 1010.9 |
| 20260506030100 | 20 | 201 | 3.2 | 8.0 | 0.00 | 0.00 | 0.00 | 65 | 1010.9 |
| 20260506024600 | 21 | 184 | 3.2 | 9.7 | 0.00 | 0.00 | 0.00 | 64 | 1011.0 |
| 20260506023101 | 21 | 204 | 1.6 | 4.8 | 0.00 | 0.00 | 0.00 | 62 | 1011.1 |
| 20260506021559 | 21 | 157 | 1.6 | 8.0 | 0.00 | 0.00 | 0.00 | 60 | 1011.0 |
| 20260506020058 | 21 | 234 | 3.2 | 11.3 | 0.00 | 0.00 | 0.00 | 57 | 1011.0 |
| 20260506014559 | 22 | 117 | 1.6 | 3.2 | 0.00 | 0.00 | 0.00 | 54 | 1010.8 |
| 20260506013058 | 22 | 229 | 3.2 | 8.0 | 0.00 | 0.00 | 0.00 | 52 | 1010.7 |
| 20260506011557 | 23 | 252 | 3.2 | 8.0 | 0.00 | 0.00 | 0.00 | 51 | 1010.6 |
| 20260506010057 | 23 | 167 | 1.6 | 8.0 | 0.00 | 0.00 | 0.00 | 50 | 1010.4 |
| 20260506004558 | 23 | 154 | 4.8 | 8.0 | 0.00 | 0.00 | 0.00 | 48 | 1010.3 |
| 20260506003056 | 23 | 242 | 3.2 | 11.3 | 0.00 | 0.00 | 0.00 | 48 | 1010.1 |
| 20260506001616 | 24 | 282 | 3.2 | 19.3 | 0.00 | 0.00 | 0.00 | 48 | 1010.0 |
| 20260506000055 | 24 | 256 | 3.2 | 11.3 | 0.00 | 0.00 | 0.00 | 48 | 1009.8 |
| 20260505234558 | 24 | 248 | 3.2 | 11.3 | 0.00 | 0.00 | 0.00 | 47 | 1009.7 |
| 20260505233057 | 25 | 234 | 3.2 | 12.9 | 0.00 | 0.00 | 0.00 | 48 | 1009.7 |
| 20260505231556 | 25 | 229 | 3.2 | 12.9 | 0.00 | 0.00 | 0.00 | 47 | 1009.4 |
| 20260505230105 | 25 | 269 | 4.8 | 14.5 | 0.00 | 0.00 | 0.00 | 45 | 1009.5 |
| 20260505224553 | 26 | 196 | 6.4 | 19.3 | 0.00 | 0.00 | 0.00 | 42 | 1009.3 |
| 20260505223058 | 26 | 257 | 4.8 | 14.5 | 0.00 | 0.00 | 0.00 | 40 | 1009.2 |
| 20260505221554 | 26 | 247 | 6.4 | 19.3 | 0.00 | 0.00 | 0.00 | 39 | 1009.2 |
| 20260505220051 | 26 | 205 | 6.4 | 27.4 | 0.00 | 0.00 | 0.00 | 40 | 1009.2 |
| 20260505214601 | 26 | 246 | 6.4 | 22.5 | 0.00 | 0.00 | 0.00 | 39 | 1009.1 |
| 20260505213057 | 26 | 254 | 6.4 | 19.3 | 0.00 | 0.00 | 0.00 | 38 | 1009.0 |